sensor_id;sensor_type;location;lat;lon;timestamp;temperature;humidity
318;DHT22;146;53.448;10.228;2023-09-08T00:02:32;18.30;1.00
318;DHT22;146;53.448;10.228;2023-09-08T00:04:59;18.30;1.00
318;DHT22;146;53.448;10.228;2023-09-08T00:07:31;18.30;1.00
318;DHT22;146;53.448;10.228;2023-09-08T00:09:58;18.30;1.00
318;DHT22;146;53.448;10.228;2023-09-08T00:12:31;18.20;1.00
318;DHT22;146;53.448;10.228;2023-09-08T00:15:01;18.20;1.00
318;DHT22;146;53.448;10.228;2023-09-08T00:17:31;18.20;1.00
318;DHT22;146;53.448;10.228;2023-09-08T00:20:01;18.20;1.00
318;DHT22;146;53.448;10.228;2023-09-08T00:22:28;18.10;1.00
318;DHT22;146;53.448;10.228;2023-09-08T00:25:08;18.10;1.00
318;DHT22;146;53.448;10.228;2023-09-08T00:27:36;18.10;1.00
318;DHT22;146;53.448;10.228;2023-09-08T00:30:04;18.10;1.00
318;DHT22;146;53.448;10.228;2023-09-08T00:32:37;18.10;1.00
318;DHT22;146;53.448;10.228;2023-09-08T00:35:07;18.00;1.00
318;DHT22;146;53.448;10.228;2023-09-08T00:37:48;18.00;1.00
318;DHT22;146;53.448;10.228;2023-09-08T00:40:17;17.90;1.00
318;DHT22;146;53.448;10.228;2023-09-08T00:43:05;17.90;1.00
318;DHT22;146;53.448;10.228;2023-09-08T00:45:36;17.90;1.00
318;DHT22;146;53.448;10.228;2023-09-08T00:48:05;17.90;1.00
318;DHT22;146;53.448;10.228;2023-09-08T00:50:39;17.90;1.00
318;DHT22;146;53.448;10.228;2023-09-08T00:53:09;17.80;1.00
318;DHT22;146;53.448;10.228;2023-09-08T00:55:36;17.80;1.00
318;DHT22;146;53.448;10.228;2023-09-08T00:58:19;17.80;1.00
318;DHT22;146;53.448;10.228;2023-09-08T01:00:51;17.80;1.00
318;DHT22;146;53.448;10.228;2023-09-08T01:03:18;17.70;1.00
318;DHT22;146;53.448;10.228;2023-09-08T01:05:45;17.60;1.00
318;DHT22;146;53.448;10.228;2023-09-08T01:08:17;17.60;1.00
318;DHT22;146;53.448;10.228;2023-09-08T01:10:45;17.60;1.00
318;DHT22;146;53.448;10.228;2023-09-08T01:13:16;17.50;1.00
318;DHT22;146;53.448;10.228;2023-09-08T01:15:46;17.50;1.00
318;DHT22;146;53.448;10.228;2023-09-08T01:18:22;17.50;1.00
318;DHT22;146;53.448;10.228;2023-09-08T01:21:11;17.50;1.00
318;DHT22;146;53.448;10.228;2023-09-08T01:23:53;17.50;1.00
318;DHT22;146;53.448;10.228;2023-09-08T01:26:28;17.40;1.00
318;DHT22;146;53.448;10.228;2023-09-08T01:29:05;17.40;1.00
318;DHT22;146;53.448;10.228;2023-09-08T01:31:33;17.40;1.00
318;DHT22;146;53.448;10.228;2023-09-08T01:34:00;17.40;1.00
318;DHT22;146;53.448;10.228;2023-09-08T01:36:33;17.40;1.00
318;DHT22;146;53.448;10.228;2023-09-08T01:39:01;17.40;1.00
318;DHT22;146;53.448;10.228;2023-09-08T01:41:29;17.40;1.00
318;DHT22;146;53.448;10.228;2023-09-08T01:43:59;17.40;1.00
318;DHT22;146;53.448;10.228;2023-09-08T01:46:30;17.40;1.00
318;DHT22;146;53.448;10.228;2023-09-08T01:49:00;17.40;1.00
318;DHT22;146;53.448;10.228;2023-09-08T01:51:27;17.50;1.00
318;DHT22;146;53.448;10.228;2023-09-08T01:53:56;17.50;1.00
318;DHT22;146;53.448;10.228;2023-09-08T01:56:22;17.40;1.00
318;DHT22;146;53.448;10.228;2023-09-08T01:58:53;17.50;1.00
318;DHT22;146;53.448;10.228;2023-09-08T02:01:20;17.50;1.00
318;DHT22;146;53.448;10.228;2023-09-08T02:03:47;17.50;1.00
318;DHT22;146;53.448;10.228;2023-09-08T02:06:14;17.50;1.00
318;DHT22;146;53.448;10.228;2023-09-08T02:08:41;17.50;1.00
318;DHT22;146;53.448;10.228;2023-09-08T02:11:20;17.40;1.00
318;DHT22;146;53.448;10.228;2023-09-08T02:13:47;17.50;1.00
318;DHT22;146;53.448;10.228;2023-09-08T02:16:15;17.50;1.00
318;DHT22;146;53.448;10.228;2023-09-08T02:18:42;17.50;1.00
318;DHT22;146;53.448;10.228;2023-09-08T02:21:12;17.40;1.00
318;DHT22;146;53.448;10.228;2023-09-08T02:23:43;17.40;1.00
318;DHT22;146;53.448;10.228;2023-09-08T02:26:10;17.50;1.00
318;DHT22;146;53.448;10.228;2023-09-08T02:28:37;17.50;1.00
318;DHT22;146;53.448;10.228;2023-09-08T02:31:04;17.50;1.00
318;DHT22;146;53.448;10.228;2023-09-08T02:33:47;17.50;1.00
318;DHT22;146;53.448;10.228;2023-09-08T02:36:14;17.50;1.00
318;DHT22;146;53.448;10.228;2023-09-08T02:38:59;17.50;1.00
318;DHT22;146;53.448;10.228;2023-09-08T02:41:26;17.40;1.00
318;DHT22;146;53.448;10.228;2023-09-08T02:43:56;17.30;1.00
318;DHT22;146;53.448;10.228;2023-09-08T02:46:28;17.30;1.00
318;DHT22;146;53.448;10.228;2023-09-08T02:49:00;17.20;1.00
318;DHT22;146;53.448;10.228;2023-09-08T02:51:28;17.20;1.00
318;DHT22;146;53.448;10.228;2023-09-08T02:53:57;17.20;1.00
318;DHT22;146;53.448;10.228;2023-09-08T02:56:27;17.10;1.00
318;DHT22;146;53.448;10.228;2023-09-08T02:58:54;17.10;1.00
318;DHT22;146;53.448;10.228;2023-09-08T03:01:20;17.10;1.00
318;DHT22;146;53.448;10.228;2023-09-08T03:03:51;17.00;1.00
318;DHT22;146;53.448;10.228;2023-09-08T03:06:22;17.00;1.00
318;DHT22;146;53.448;10.228;2023-09-08T03:08:49;16.90;1.00
318;DHT22;146;53.448;10.228;2023-09-08T03:11:19;16.80;1.00
318;DHT22;146;53.448;10.228;2023-09-08T03:13:52;16.80;1.00
318;DHT22;146;53.448;10.228;2023-09-08T03:16:18;16.70;1.00
318;DHT22;146;53.448;10.228;2023-09-08T03:18:51;16.70;1.00
318;DHT22;146;53.448;10.228;2023-09-08T03:21:22;16.70;1.00
318;DHT22;146;53.448;10.228;2023-09-08T03:23:52;16.80;1.00
318;DHT22;146;53.448;10.228;2023-09-08T03:26:24;16.80;1.00
318;DHT22;146;53.448;10.228;2023-09-08T03:29:02;16.70;1.00
318;DHT22;146;53.448;10.228;2023-09-08T03:31:35;16.60;1.00
318;DHT22;146;53.448;10.228;2023-09-08T03:34:02;16.70;1.00
318;DHT22;146;53.448;10.228;2023-09-08T03:36:30;16.60;1.00
318;DHT22;146;53.448;10.228;2023-09-08T03:39:01;16.60;1.00
318;DHT22;146;53.448;10.228;2023-09-08T03:41:37;16.60;1.00
318;DHT22;146;53.448;10.228;2023-09-08T03:44:13;16.50;1.00
318;DHT22;146;53.448;10.228;2023-09-08T03:46:40;16.50;1.00
318;DHT22;146;53.448;10.228;2023-09-08T03:49:09;16.50;1.00
318;DHT22;146;53.448;10.228;2023-09-08T03:51:38;16.50;1.00
318;DHT22;146;53.448;10.228;2023-09-08T03:54:05;16.40;1.00
318;DHT22;146;53.448;10.228;2023-09-08T03:56:37;16.50;1.00
318;DHT22;146;53.448;10.228;2023-09-08T03:59:16;16.50;1.00
318;DHT22;146;53.448;10.228;2023-09-08T04:01:43;16.50;1.00
318;DHT22;146;53.448;10.228;2023-09-08T04:04:10;16.50;1.00
318;DHT22;146;53.448;10.228;2023-09-08T04:06:38;16.50;1.00
318;DHT22;146;53.448;10.228;2023-09-08T04:09:17;16.50;1.00
318;DHT22;146;53.448;10.228;2023-09-08T04:11:44;16.50;1.00
318;DHT22;146;53.448;10.228;2023-09-08T04:14:11;16.40;1.00
318;DHT22;146;53.448;10.228;2023-09-08T04:16:37;16.50;1.00
318;DHT22;146;53.448;10.228;2023-09-08T04:19:04;16.50;1.00
318;DHT22;146;53.448;10.228;2023-09-08T04:21:31;16.40;1.00
318;DHT22;146;53.448;10.228;2023-09-08T04:24:18;16.40;1.00
318;DHT22;146;53.448;10.228;2023-09-08T04:26:48;16.40;1.00
318;DHT22;146;53.448;10.228;2023-09-08T04:29:15;16.40;1.00
318;DHT22;146;53.448;10.228;2023-09-08T04:31:47;16.40;1.00
318;DHT22;146;53.448;10.228;2023-09-08T04:34:20;16.40;1.00
318;DHT22;146;53.448;10.228;2023-09-08T04:36:52;16.30;1.00
318;DHT22;146;53.448;10.228;2023-09-08T04:39:23;16.30;1.00
318;DHT22;146;53.448;10.228;2023-09-08T04:41:55;16.30;1.00
318;DHT22;146;53.448;10.228;2023-09-08T04:44:25;16.30;1.00
318;DHT22;146;53.448;10.228;2023-09-08T04:47:04;16.30;1.00
318;DHT22;146;53.448;10.228;2023-09-08T04:49:31;16.20;1.00
318;DHT22;146;53.448;10.228;2023-09-08T04:51:58;16.20;1.00
318;DHT22;146;53.448;10.228;2023-09-08T04:54:35;16.20;1.00
318;DHT22;146;53.448;10.228;2023-09-08T04:57:11;16.20;1.00
318;DHT22;146;53.448;10.228;2023-09-08T04:59:50;16.20;1.00
318;DHT22;146;53.448;10.228;2023-09-08T05:02:16;16.20;1.00
318;DHT22;146;53.448;10.228;2023-09-08T05:04:44;16.20;1.00
318;DHT22;146;53.448;10.228;2023-09-08T05:07:14;16.20;1.00
318;DHT22;146;53.448;10.228;2023-09-08T05:09:48;16.20;1.00
318;DHT22;146;53.448;10.228;2023-09-08T05:12:18;16.10;1.00
318;DHT22;146;53.448;10.228;2023-09-08T05:14:51;16.20;1.00
318;DHT22;146;53.448;10.228;2023-09-08T05:17:22;16.20;1.00
318;DHT22;146;53.448;10.228;2023-09-08T05:19:52;16.20;1.00
318;DHT22;146;53.448;10.228;2023-09-08T05:22:22;16.20;1.00
318;DHT22;146;53.448;10.228;2023-09-08T05:24:50;16.20;1.00
318;DHT22;146;53.448;10.228;2023-09-08T05:27:20;16.20;1.00
318;DHT22;146;53.448;10.228;2023-09-08T05:29:46;16.20;1.00
318;DHT22;146;53.448;10.228;2023-09-08T05:32:16;16.20;1.00
318;DHT22;146;53.448;10.228;2023-09-08T05:34:47;16.20;1.00
318;DHT22;146;53.448;10.228;2023-09-08T05:37:16;16.20;1.00
318;DHT22;146;53.448;10.228;2023-09-08T05:39:45;16.30;1.00
318;DHT22;146;53.448;10.228;2023-09-08T05:42:13;16.30;1.00
318;DHT22;146;53.448;10.228;2023-09-08T05:44:46;16.30;1.00
318;DHT22;146;53.448;10.228;2023-09-08T05:47:16;16.30;1.00
318;DHT22;146;53.448;10.228;2023-09-08T05:49:46;16.30;1.00
318;DHT22;146;53.448;10.228;2023-09-08T05:52:13;16.40;1.00
318;DHT22;146;53.448;10.228;2023-09-08T05:54:46;16.40;1.00
318;DHT22;146;53.448;10.228;2023-09-08T05:57:14;16.40;1.00
318;DHT22;146;53.448;10.228;2023-09-08T05:59:44;16.50;1.00
318;DHT22;146;53.448;10.228;2023-09-08T06:02:19;16.50;1.00
318;DHT22;146;53.448;10.228;2023-09-08T06:04:48;16.60;1.00
318;DHT22;146;53.448;10.228;2023-09-08T06:07:24;16.60;1.00
318;DHT22;146;53.448;10.228;2023-09-08T06:10:01;16.70;1.00
318;DHT22;146;53.448;10.228;2023-09-08T06:12:36;16.70;1.00
318;DHT22;146;53.448;10.228;2023-09-08T06:15:03;16.70;1.00
318;DHT22;146;53.448;10.228;2023-09-08T06:17:30;16.80;1.00
318;DHT22;146;53.448;10.228;2023-09-08T06:20:07;16.80;1.00
318;DHT22;146;53.448;10.228;2023-09-08T06:22:34;16.90;1.00
318;DHT22;146;53.448;10.228;2023-09-08T06:27:55;17.00;1.00
318;DHT22;146;53.448;10.228;2023-09-08T06:30:25;17.00;1.00
318;DHT22;146;53.448;10.228;2023-09-08T06:32:52;17.10;1.00
318;DHT22;146;53.448;10.228;2023-09-08T06:35:18;17.10;1.00
318;DHT22;146;53.448;10.228;2023-09-08T06:37:45;17.20;1.00
318;DHT22;146;53.448;10.228;2023-09-08T06:40:30;17.20;1.00
318;DHT22;146;53.448;10.228;2023-09-08T06:43:01;17.30;1.00
318;DHT22;146;53.448;10.228;2023-09-08T06:45:30;17.40;1.00
318;DHT22;146;53.448;10.228;2023-09-08T06:48:04;17.40;1.00
318;DHT22;146;53.448;10.228;2023-09-08T06:50:30;17.50;1.00
318;DHT22;146;53.448;10.228;2023-09-08T06:52:57;17.60;1.00
318;DHT22;146;53.448;10.228;2023-09-08T06:55:26;17.70;1.00
318;DHT22;146;53.448;10.228;2023-09-08T06:57:54;17.80;1.00
318;DHT22;146;53.448;10.228;2023-09-08T07:00:31;17.90;1.00
318;DHT22;146;53.448;10.228;2023-09-08T07:03:04;18.00;1.00
318;DHT22;146;53.448;10.228;2023-09-08T07:05:31;18.10;1.00
318;DHT22;146;53.448;10.228;2023-09-08T07:07:58;18.10;1.00
318;DHT22;146;53.448;10.228;2023-09-08T07:10:31;18.30;1.00
318;DHT22;146;53.448;10.228;2023-09-08T07:12:58;18.30;1.00
318;DHT22;146;53.448;10.228;2023-09-08T07:15:28;18.40;1.00
318;DHT22;146;53.448;10.228;2023-09-08T07:18:01;18.40;1.00
318;DHT22;146;53.448;10.228;2023-09-08T07:20:37;18.50;1.00
318;DHT22;146;53.448;10.228;2023-09-08T07:23:04;18.60;1.00
318;DHT22;146;53.448;10.228;2023-09-08T07:25:31;18.60;1.00
318;DHT22;146;53.448;10.228;2023-09-08T07:28:00;18.60;1.00
318;DHT22;146;53.448;10.228;2023-09-08T07:30:38;18.70;1.00
318;DHT22;146;53.448;10.228;2023-09-08T07:33:05;18.70;1.00
318;DHT22;146;53.448;10.228;2023-09-08T07:35:36;18.80;1.00
318;DHT22;146;53.448;10.228;2023-09-08T07:38:06;18.90;1.00
318;DHT22;146;53.448;10.228;2023-09-08T07:40:36;19.00;1.00
318;DHT22;146;53.448;10.228;2023-09-08T07:43:03;19.00;1.00
318;DHT22;146;53.448;10.228;2023-09-08T07:45:30;19.10;1.00
318;DHT22;146;53.448;10.228;2023-09-08T07:48:00;19.10;1.00
318;DHT22;146;53.448;10.228;2023-09-08T07:50:28;19.20;1.00
318;DHT22;146;53.448;10.228;2023-09-08T07:52:56;19.20;1.00
318;DHT22;146;53.448;10.228;2023-09-08T07:55:26;19.30;1.00
318;DHT22;146;53.448;10.228;2023-09-08T07:58:08;19.40;1.00
318;DHT22;146;53.448;10.228;2023-09-08T08:00:37;19.40;1.00
318;DHT22;146;53.448;10.228;2023-09-08T08:03:18;19.50;1.00
318;DHT22;146;53.448;10.228;2023-09-08T08:05:47;19.50;1.00
318;DHT22;146;53.448;10.228;2023-09-08T08:08:19;19.60;1.00
318;DHT22;146;53.448;10.228;2023-09-08T08:10:45;19.60;1.00
318;DHT22;146;53.448;10.228;2023-09-08T08:13:15;19.70;1.00
318;DHT22;146;53.448;10.228;2023-09-08T08:15:42;19.80;1.00
318;DHT22;146;53.448;10.228;2023-09-08T08:18:14;19.90;1.00
318;DHT22;146;53.448;10.228;2023-09-08T08:20:45;19.90;1.00
318;DHT22;146;53.448;10.228;2023-09-08T08:23:18;20.00;1.00
318;DHT22;146;53.448;10.228;2023-09-08T08:25:51;20.10;1.00
318;DHT22;146;53.448;10.228;2023-09-08T08:28:19;20.10;1.00
318;DHT22;146;53.448;10.228;2023-09-08T08:30:49;20.20;1.00
318;DHT22;146;53.448;10.228;2023-09-08T08:33:25;20.20;1.00
318;DHT22;146;53.448;10.228;2023-09-08T08:36:06;20.30;1.00
318;DHT22;146;53.448;10.228;2023-09-08T08:38:38;20.30;1.00
318;DHT22;146;53.448;10.228;2023-09-08T08:41:05;20.40;1.00
318;DHT22;146;53.448;10.228;2023-09-08T08:43:56;20.50;1.00
318;DHT22;146;53.448;10.228;2023-09-08T08:46:26;20.50;1.00
318;DHT22;146;53.448;10.228;2023-09-08T08:49:09;20.60;1.00
318;DHT22;146;53.448;10.228;2023-09-08T08:51:38;20.60;1.00
318;DHT22;146;53.448;10.228;2023-09-08T08:54:06;20.70;1.00
318;DHT22;146;53.448;10.228;2023-09-08T08:56:33;20.70;1.00
318;DHT22;146;53.448;10.228;2023-09-08T08:59:04;20.80;1.00
318;DHT22;146;53.448;10.228;2023-09-08T09:01:35;20.90;1.00
318;DHT22;146;53.448;10.228;2023-09-08T09:04:05;21.00;1.00
318;DHT22;146;53.448;10.228;2023-09-08T09:06:33;21.10;1.00
318;DHT22;146;53.448;10.228;2023-09-08T09:09:02;21.10;1.00
318;DHT22;146;53.448;10.228;2023-09-08T09:11:36;21.10;1.00
318;DHT22;146;53.448;10.228;2023-09-08T09:14:06;21.30;1.00
318;DHT22;146;53.448;10.228;2023-09-08T09:16:38;21.30;1.00
318;DHT22;146;53.448;10.228;2023-09-08T09:19:08;21.40;1.00
318;DHT22;146;53.448;10.228;2023-09-08T09:21:43;21.40;1.00
318;DHT22;146;53.448;10.228;2023-09-08T09:24:15;21.40;1.00
318;DHT22;146;53.448;10.228;2023-09-08T09:26:51;21.40;1.00
318;DHT22;146;53.448;10.228;2023-09-08T09:29:24;21.50;1.00
318;DHT22;146;53.448;10.228;2023-09-08T09:31:51;21.60;1.00
318;DHT22;146;53.448;10.228;2023-09-08T09:34:22;21.70;1.00
318;DHT22;146;53.448;10.228;2023-09-08T09:36:50;21.80;1.00
318;DHT22;146;53.448;10.228;2023-09-08T09:39:21;21.90;1.00
318;DHT22;146;53.448;10.228;2023-09-08T09:41:49;21.90;1.00
318;DHT22;146;53.448;10.228;2023-09-08T09:44:26;22.00;1.00
318;DHT22;146;53.448;10.228;2023-09-08T09:47:02;22.10;1.00
318;DHT22;146;53.448;10.228;2023-09-08T09:49:41;22.20;1.00
318;DHT22;146;53.448;10.228;2023-09-08T09:52:12;22.40;1.00
318;DHT22;146;53.448;10.228;2023-09-08T09:54:46;22.50;1.00
318;DHT22;146;53.448;10.228;2023-09-08T09:57:30;22.60;1.00
318;DHT22;146;53.448;10.228;2023-09-08T10:00:05;22.70;1.00
318;DHT22;146;53.448;10.228;2023-09-08T10:02:37;22.80;1.00
318;DHT22;146;53.448;10.228;2023-09-08T10:05:10;22.90;1.00
318;DHT22;146;53.448;10.228;2023-09-08T10:07:38;23.00;1.00
318;DHT22;146;53.448;10.228;2023-09-08T10:10:10;23.10;1.00
318;DHT22;146;53.448;10.228;2023-09-08T10:12:44;23.20;1.00
318;DHT22;146;53.448;10.228;2023-09-08T10:15:15;23.30;1.00
318;DHT22;146;53.448;10.228;2023-09-08T10:17:44;23.40;1.00
318;DHT22;146;53.448;10.228;2023-09-08T10:20:16;23.50;1.00
318;DHT22;146;53.448;10.228;2023-09-08T10:22:52;23.40;1.00
318;DHT22;146;53.448;10.228;2023-09-08T10:25:25;23.50;1.00
318;DHT22;146;53.448;10.228;2023-09-08T10:27:55;23.70;1.00
318;DHT22;146;53.448;10.228;2023-09-08T10:30:28;23.80;1.00
318;DHT22;146;53.448;10.228;2023-09-08T10:32:55;23.80;1.00
318;DHT22;146;53.448;10.228;2023-09-08T10:35:24;23.90;1.00
318;DHT22;146;53.448;10.228;2023-09-08T10:38:21;24.00;1.00
318;DHT22;146;53.448;10.228;2023-09-08T10:40:53;24.10;1.00
318;DHT22;146;53.448;10.228;2023-09-08T10:43:20;24.10;1.00
318;DHT22;146;53.448;10.228;2023-09-08T10:45:53;24.30;1.00
318;DHT22;146;53.448;10.228;2023-09-08T10:48:20;24.30;1.00
318;DHT22;146;53.448;10.228;2023-09-08T10:50:50;24.30;1.00
318;DHT22;146;53.448;10.228;2023-09-08T10:53:22;24.50;1.00
318;DHT22;146;53.448;10.228;2023-09-08T10:55:52;24.60;1.00
318;DHT22;146;53.448;10.228;2023-09-08T10:58:31;24.70;1.00
318;DHT22;146;53.448;10.228;2023-09-08T11:01:00;24.70;1.00
318;DHT22;146;53.448;10.228;2023-09-08T11:03:43;24.90;1.00
318;DHT22;146;53.448;10.228;2023-09-08T11:06:15;24.90;1.00
318;DHT22;146;53.448;10.228;2023-09-08T11:08:44;25.00;1.00
318;DHT22;146;53.448;10.228;2023-09-08T11:11:15;25.10;1.00
318;DHT22;146;53.448;10.228;2023-09-08T11:13:43;25.10;1.00
318;DHT22;146;53.448;10.228;2023-09-08T11:16:13;25.30;1.00
318;DHT22;146;53.448;10.228;2023-09-08T11:18:40;25.40;1.00
318;DHT22;146;53.448;10.228;2023-09-08T11:21:12;25.50;1.00
318;DHT22;146;53.448;10.228;2023-09-08T11:23:39;25.50;1.00
318;DHT22;146;53.448;10.228;2023-09-08T11:26:22;25.60;1.00
318;DHT22;146;53.448;10.228;2023-09-08T11:28:57;25.60;1.00
318;DHT22;146;53.448;10.228;2023-09-08T11:31:24;25.70;1.00
318;DHT22;146;53.448;10.228;2023-09-08T11:34:00;25.80;1.00
318;DHT22;146;53.448;10.228;2023-09-08T11:36:34;25.80;1.00
318;DHT22;146;53.448;10.228;2023-09-08T11:39:22;25.90;1.00
318;DHT22;146;53.448;10.228;2023-09-08T11:41:52;25.90;1.00
318;DHT22;146;53.448;10.228;2023-09-08T11:44:27;26.00;1.00
318;DHT22;146;53.448;10.228;2023-09-08T11:47:04;26.00;1.00
318;DHT22;146;53.448;10.228;2023-09-08T11:49:34;26.00;1.00
318;DHT22;146;53.448;10.228;2023-09-08T11:52:04;26.10;1.00
318;DHT22;146;53.448;10.228;2023-09-08T11:54:31;26.10;1.00
318;DHT22;146;53.448;10.228;2023-09-08T11:57:02;26.10;1.00
318;DHT22;146;53.448;10.228;2023-09-08T11:59:33;26.20;1.00
318;DHT22;146;53.448;10.228;2023-09-08T12:02:07;26.30;1.00
318;DHT22;146;53.448;10.228;2023-09-08T12:04:42;26.20;1.00
318;DHT22;146;53.448;10.228;2023-09-08T12:07:15;26.30;1.00
318;DHT22;146;53.448;10.228;2023-09-08T12:09:45;26.30;1.00
318;DHT22;146;53.448;10.228;2023-09-08T12:12:15;26.30;1.00
318;DHT22;146;53.448;10.228;2023-09-08T12:14:57;26.40;1.00
318;DHT22;146;53.448;10.228;2023-09-08T12:17:30;26.40;1.00
318;DHT22;146;53.448;10.228;2023-09-08T12:20:00;26.50;1.00
318;DHT22;146;53.448;10.228;2023-09-08T12:22:26;26.60;1.00
318;DHT22;146;53.448;10.228;2023-09-08T12:24:57;26.60;1.00
318;DHT22;146;53.448;10.228;2023-09-08T12:27:49;26.70;1.00
318;DHT22;146;53.448;10.228;2023-09-08T12:30:28;26.90;1.00
318;DHT22;146;53.448;10.228;2023-09-08T12:32:58;27.00;1.00
318;DHT22;146;53.448;10.228;2023-09-08T12:35:26;27.00;1.00
318;DHT22;146;53.448;10.228;2023-09-08T12:37:57;27.00;1.00
318;DHT22;146;53.448;10.228;2023-09-08T12:40:33;27.10;1.00
318;DHT22;146;53.448;10.228;2023-09-08T12:43:00;27.10;1.00
318;DHT22;146;53.448;10.228;2023-09-08T12:45:36;27.20;1.00
318;DHT22;146;53.448;10.228;2023-09-08T12:48:03;27.20;1.00
318;DHT22;146;53.448;10.228;2023-09-08T12:50:30;27.30;1.00
318;DHT22;146;53.448;10.228;2023-09-08T12:53:00;27.30;1.00
318;DHT22;146;53.448;10.228;2023-09-08T12:55:27;27.30;1.00
318;DHT22;146;53.448;10.228;2023-09-08T12:57:53;27.50;1.00
318;DHT22;146;53.448;10.228;2023-09-08T13:00:21;27.50;1.00
318;DHT22;146;53.448;10.228;2023-09-08T13:02:58;27.50;1.00
318;DHT22;146;53.448;10.228;2023-09-08T13:05:27;27.60;1.00
318;DHT22;146;53.448;10.228;2023-09-08T13:07:56;27.60;1.00
318;DHT22;146;53.448;10.228;2023-09-08T13:10:29;27.60;1.00
318;DHT22;146;53.448;10.228;2023-09-08T13:12:59;27.50;1.00
318;DHT22;146;53.448;10.228;2023-09-08T13:15:26;27.60;1.00
318;DHT22;146;53.448;10.228;2023-09-08T13:17:54;27.60;1.00
318;DHT22;146;53.448;10.228;2023-09-08T13:20:24;27.60;1.00
318;DHT22;146;53.448;10.228;2023-09-08T13:22:51;27.70;1.00
318;DHT22;146;53.448;10.228;2023-09-08T13:25:21;27.70;1.00
318;DHT22;146;53.448;10.228;2023-09-08T13:27:57;27.70;1.00
318;DHT22;146;53.448;10.228;2023-09-08T13:30:23;27.70;1.00
318;DHT22;146;53.448;10.228;2023-09-08T13:32:55;27.80;1.00
318;DHT22;146;53.448;10.228;2023-09-08T13:35:25;27.80;1.00
318;DHT22;146;53.448;10.228;2023-09-08T13:37:52;27.80;1.00
318;DHT22;146;53.448;10.228;2023-09-08T13:40:25;27.80;1.00
318;DHT22;146;53.448;10.228;2023-09-08T13:42:58;27.80;1.00
318;DHT22;146;53.448;10.228;2023-09-08T13:45:35;27.80;1.00
318;DHT22;146;53.448;10.228;2023-09-08T13:48:03;27.80;1.00
318;DHT22;146;53.448;10.228;2023-09-08T13:50:31;27.80;1.00
318;DHT22;146;53.448;10.228;2023-09-08T13:53:01;27.80;1.00
318;DHT22;146;53.448;10.228;2023-09-08T13:55:28;27.70;1.00
318;DHT22;146;53.448;10.228;2023-09-08T13:57:58;27.80;1.00
318;DHT22;146;53.448;10.228;2023-09-08T14:00:27;27.80;1.00
318;DHT22;146;53.448;10.228;2023-09-08T14:03:00;27.80;1.00
318;DHT22;146;53.448;10.228;2023-09-08T14:05:28;27.70;1.00
318;DHT22;146;53.448;10.228;2023-09-08T14:08:01;27.70;1.00
318;DHT22;146;53.448;10.228;2023-09-08T14:10:27;27.70;1.00
318;DHT22;146;53.448;10.228;2023-09-08T14:12:54;27.70;1.00
318;DHT22;146;53.448;10.228;2023-09-08T14:15:21;27.70;1.00
318;DHT22;146;53.448;10.228;2023-09-08T14:17:51;27.70;1.00
318;DHT22;146;53.448;10.228;2023-09-08T14:20:21;27.70;1.00
318;DHT22;146;53.448;10.228;2023-09-08T14:22:55;27.60;1.00
318;DHT22;146;53.448;10.228;2023-09-08T14:25:22;27.60;1.00
318;DHT22;146;53.448;10.228;2023-09-08T14:27:49;27.60;1.00
318;DHT22;146;53.448;10.228;2023-09-08T14:30:16;27.60;1.00
318;DHT22;146;53.448;10.228;2023-09-08T14:32:49;27.70;1.00
318;DHT22;146;53.448;10.228;2023-09-08T14:35:16;27.60;1.00
318;DHT22;146;53.448;10.228;2023-09-08T14:37:52;27.60;1.00
318;DHT22;146;53.448;10.228;2023-09-08T14:40:22;27.60;1.00
318;DHT22;146;53.448;10.228;2023-09-08T14:42:52;27.50;1.00
318;DHT22;146;53.448;10.228;2023-09-08T14:45:27;27.50;1.00
318;DHT22;146;53.448;10.228;2023-09-08T14:48:00;27.60;1.00
318;DHT22;146;53.448;10.228;2023-09-08T14:50:29;27.50;1.00
318;DHT22;146;53.448;10.228;2023-09-08T14:53:02;27.50;1.00
318;DHT22;146;53.448;10.228;2023-09-08T14:55:33;27.50;1.00
318;DHT22;146;53.448;10.228;2023-09-08T14:58:00;27.40;1.00
318;DHT22;146;53.448;10.228;2023-09-08T15:00:30;27.40;1.00
318;DHT22;146;53.448;10.228;2023-09-08T15:03:00;27.50;1.00
318;DHT22;146;53.448;10.228;2023-09-08T15:05:30;27.40;1.00
318;DHT22;146;53.448;10.228;2023-09-08T15:07:57;27.40;1.00
318;DHT22;146;53.448;10.228;2023-09-08T15:10:26;27.40;1.00
318;DHT22;146;53.448;10.228;2023-09-08T15:12:55;27.40;1.00
318;DHT22;146;53.448;10.228;2023-09-08T15:15:21;27.40;1.00
318;DHT22;146;53.448;10.228;2023-09-08T15:17:53;27.40;1.00
318;DHT22;146;53.448;10.228;2023-09-08T15:20:23;27.40;1.00
318;DHT22;146;53.448;10.228;2023-09-08T15:22:52;27.40;1.00
318;DHT22;146;53.448;10.228;2023-09-08T15:25:25;27.30;1.00
318;DHT22;146;53.448;10.228;2023-09-08T15:27:59;27.30;1.00
318;DHT22;146;53.448;10.228;2023-09-08T15:30:33;27.30;1.00
318;DHT22;146;53.448;10.228;2023-09-08T15:33:15;27.20;1.00
318;DHT22;146;53.448;10.228;2023-09-08T15:35:47;27.20;1.00
318;DHT22;146;53.448;10.228;2023-09-08T15:38:14;27.20;1.00
318;DHT22;146;53.448;10.228;2023-09-08T15:41:13;27.20;1.00
318;DHT22;146;53.448;10.228;2023-09-08T15:43:45;27.20;1.00
318;DHT22;146;53.448;10.228;2023-09-08T15:46:20;27.10;1.00
318;DHT22;146;53.448;10.228;2023-09-08T15:48:53;27.10;1.00
318;DHT22;146;53.448;10.228;2023-09-08T15:51:23;27.10;1.00
318;DHT22;146;53.448;10.228;2023-09-08T15:53:53;27.10;1.00
318;DHT22;146;53.448;10.228;2023-09-08T15:56:19;27.00;1.00
318;DHT22;146;53.448;10.228;2023-09-08T15:58:50;26.90;1.00
318;DHT22;146;53.448;10.228;2023-09-08T16:01:20;26.90;1.00
318;DHT22;146;53.448;10.228;2023-09-08T16:03:55;26.90;1.00
318;DHT22;146;53.448;10.228;2023-09-08T16:06:22;26.80;1.00
318;DHT22;146;53.448;10.228;2023-09-08T16:08:49;26.80;1.00
318;DHT22;146;53.448;10.228;2023-09-08T16:11:16;26.80;1.00
318;DHT22;146;53.448;10.228;2023-09-08T16:13:47;26.70;1.00
318;DHT22;146;53.448;10.228;2023-09-08T16:16:14;26.80;1.00
318;DHT22;146;53.448;10.228;2023-09-08T16:18:41;26.70;1.00
318;DHT22;146;53.448;10.228;2023-09-08T16:21:08;26.70;1.00
318;DHT22;146;53.448;10.228;2023-09-08T16:23:38;26.70;1.00
318;DHT22;146;53.448;10.228;2023-09-08T16:26:04;26.60;1.00
318;DHT22;146;53.448;10.228;2023-09-08T16:28:31;26.50;1.00
318;DHT22;146;53.448;10.228;2023-09-08T16:31:08;26.50;1.00
318;DHT22;146;53.448;10.228;2023-09-08T16:33:37;26.40;1.00
318;DHT22;146;53.448;10.228;2023-09-08T16:36:07;26.40;1.00
318;DHT22;146;53.448;10.228;2023-09-08T16:38:37;26.50;1.00
318;DHT22;146;53.448;10.228;2023-09-08T16:41:06;26.50;1.00
318;DHT22;146;53.448;10.228;2023-09-08T16:43:33;26.50;1.00
318;DHT22;146;53.448;10.228;2023-09-08T16:46:00;26.50;1.00
318;DHT22;146;53.448;10.228;2023-09-08T16:48:32;26.40;1.00
318;DHT22;146;53.448;10.228;2023-09-08T16:50:58;26.50;1.00
318;DHT22;146;53.448;10.228;2023-09-08T16:53:31;26.40;1.00
318;DHT22;146;53.448;10.228;2023-09-08T16:56:01;26.40;1.00
318;DHT22;146;53.448;10.228;2023-09-08T16:58:46;26.30;1.00
318;DHT22;146;53.448;10.228;2023-09-08T17:01:20;26.30;1.00
318;DHT22;146;53.448;10.228;2023-09-08T17:03:50;26.20;1.00